sensor_id;sensor_type;location;lat;lon;timestamp;P1;durP1;ratioP1;P2;durP2;ratioP2
48629;SDS011;34426;52.180;4.462;2024-02-23T00:01:34;21.90;;;3.85;;
48629;SDS011;34426;52.180;4.462;2024-02-23T00:04:00;23.08;;;4.20;;
48629;SDS011;34426;52.180;4.462;2024-02-23T00:06:25;28.77;;;3.92;;
48629;SDS011;34426;52.180;4.462;2024-02-23T00:08:51;23.13;;;3.47;;
48629;SDS011;34426;52.180;4.462;2024-02-23T00:11:16;26.33;;;3.33;;
48629;SDS011;34426;52.180;4.462;2024-02-23T00:13:43;18.73;;;3.00;;
48629;SDS011;34426;52.180;4.462;2024-02-23T00:16:08;26.33;;;4.80;;
48629;SDS011;34426;52.180;4.462;2024-02-23T00:18:34;28.73;;;3.88;;
48629;SDS011;34426;52.180;4.462;2024-02-23T00:20:59;33.00;;;4.63;;
48629;SDS011;34426;52.180;4.462;2024-02-23T00:23:25;20.98;;;3.90;;
48629;SDS011;34426;52.180;4.462;2024-02-23T00:25:50;33.67;;;4.60;;
48629;SDS011;34426;52.180;4.462;2024-02-23T00:28:15;27.25;;;3.33;;
48629;SDS011;34426;52.180;4.462;2024-02-23T00:30:42;34.17;;;4.38;;
48629;SDS011;34426;52.180;4.462;2024-02-23T00:33:08;25.90;;;3.83;;
48629;SDS011;34426;52.180;4.462;2024-02-23T00:35:33;30.13;;;3.45;;
48629;SDS011;34426;52.180;4.462;2024-02-23T00:37:59;32.10;;;4.57;;
48629;SDS011;34426;52.180;4.462;2024-02-23T00:40:24;30.27;;;4.00;;
48629;SDS011;34426;52.180;4.462;2024-02-23T00:42:50;21.67;;;3.42;;
48629;SDS011;34426;52.180;4.462;2024-02-23T00:45:15;34.05;;;4.07;;
48629;SDS011;34426;52.180;4.462;2024-02-23T00:47:42;23.20;;;3.13;;
48629;SDS011;34426;52.180;4.462;2024-02-23T00:50:08;34.83;;;4.45;;
48629;SDS011;34426;52.180;4.462;2024-02-23T00:52:34;34.42;;;3.95;;
48629;SDS011;34426;52.180;4.462;2024-02-23T00:54:59;20.15;;;3.22;;
48629;SDS011;34426;52.180;4.462;2024-02-23T00:57:25;26.27;;;3.13;;
48629;SDS011;34426;52.180;4.462;2024-02-23T00:59:50;24.15;;;4.25;;
48629;SDS011;34426;52.180;4.462;2024-02-23T01:02:16;27.45;;;3.50;;
48629;SDS011;34426;52.180;4.462;2024-02-23T01:04:43;22.50;;;3.55;;
48629;SDS011;34426;52.180;4.462;2024-02-23T01:07:08;25.00;;;3.67;;
48629;SDS011;34426;52.180;4.462;2024-02-23T01:09:33;25.92;;;3.78;;
48629;SDS011;34426;52.180;4.462;2024-02-23T01:12:00;27.88;;;3.28;;
48629;SDS011;34426;52.180;4.462;2024-02-23T01:14:25;19.17;;;2.72;;
48629;SDS011;34426;52.180;4.462;2024-02-23T01:16:51;29.45;;;3.53;;
48629;SDS011;34426;52.180;4.462;2024-02-23T01:19:16;21.23;;;3.30;;
48629;SDS011;34426;52.180;4.462;2024-02-23T01:21:43;19.23;;;2.53;;
48629;SDS011;34426;52.180;4.462;2024-02-23T01:24:08;22.30;;;4.05;;
48629;SDS011;34426;52.180;4.462;2024-02-23T01:26:34;31.55;;;3.97;;
48629;SDS011;34426;52.180;4.462;2024-02-23T01:28:59;19.70;;;2.83;;
48629;SDS011;34426;52.180;4.462;2024-02-23T01:31:24;15.43;;;2.88;;
48629;SDS011;34426;52.180;4.462;2024-02-23T01:33:50;23.40;;;3.80;;
48629;SDS011;34426;52.180;4.462;2024-02-23T01:36:15;18.48;;;2.88;;
48629;SDS011;34426;52.180;4.462;2024-02-23T01:38:42;16.90;;;2.88;;
48629;SDS011;34426;52.180;4.462;2024-02-23T01:41:08;17.08;;;2.92;;
48629;SDS011;34426;52.180;4.462;2024-02-23T01:43:33;19.90;;;3.08;;
48629;SDS011;34426;52.180;4.462;2024-02-23T01:45:59;20.48;;;3.20;;
48629;SDS011;34426;52.180;4.462;2024-02-23T01:48:24;19.52;;;3.60;;
48629;SDS011;34426;52.180;4.462;2024-02-23T01:50:52;20.92;;;3.00;;
48629;SDS011;34426;52.180;4.462;2024-02-23T01:53:19;21.13;;;2.65;;
48629;SDS011;34426;52.180;4.462;2024-02-23T01:55:46;24.98;;;3.58;;
48629;SDS011;34426;52.180;4.462;2024-02-23T01:58:12;26.63;;;3.33;;
48629;SDS011;34426;52.180;4.462;2024-02-23T02:00:38;18.75;;;2.70;;
48629;SDS011;34426;52.180;4.462;2024-02-23T02:03:04;19.10;;;2.88;;
48629;SDS011;34426;52.180;4.462;2024-02-23T02:05:29;21.08;;;2.97;;
48629;SDS011;34426;52.180;4.462;2024-02-23T02:07:55;20.85;;;3.17;;
48629;SDS011;34426;52.180;4.462;2024-02-23T02:10:21;15.38;;;2.60;;
48629;SDS011;34426;52.180;4.462;2024-02-23T02:12:48;22.50;;;2.78;;
48629;SDS011;34426;52.180;4.462;2024-02-23T02:15:13;22.00;;;3.08;;
48629;SDS011;34426;52.180;4.462;2024-02-23T02:17:38;21.38;;;3.65;;
48629;SDS011;34426;52.180;4.462;2024-02-23T02:20:04;18.92;;;2.75;;
48629;SDS011;34426;52.180;4.462;2024-02-23T02:22:32;25.77;;;2.45;;
48629;SDS011;34426;52.180;4.462;2024-02-23T02:24:58;21.52;;;3.30;;
48629;SDS011;34426;52.180;4.462;2024-02-23T02:27:23;15.88;;;3.00;;
48629;SDS011;34426;52.180;4.462;2024-02-23T02:29:51;20.05;;;3.15;;
48629;SDS011;34426;52.180;4.462;2024-02-23T02:32:16;21.65;;;3.88;;
48629;SDS011;34426;52.180;4.462;2024-02-23T02:34:42;24.42;;;3.85;;
48629;SDS011;34426;52.180;4.462;2024-02-23T02:37:07;24.83;;;3.05;;
48629;SDS011;34426;52.180;4.462;2024-02-23T02:39:32;26.35;;;4.65;;
48629;SDS011;34426;52.180;4.462;2024-02-23T02:41:58;31.80;;;3.55;;
48629;SDS011;34426;52.180;4.462;2024-02-23T02:44:24;16.27;;;2.85;;
48629;SDS011;34426;52.180;4.462;2024-02-23T02:46:51;17.17;;;3.03;;
48629;SDS011;34426;52.180;4.462;2024-02-23T02:49:16;18.20;;;2.30;;
48629;SDS011;34426;52.180;4.462;2024-02-23T02:51:41;17.13;;;2.53;;
48629;SDS011;34426;52.180;4.462;2024-02-23T02:54:07;27.17;;;4.00;;
48629;SDS011;34426;52.180;4.462;2024-02-23T02:56:32;24.67;;;3.28;;
48629;SDS011;34426;52.180;4.462;2024-02-23T02:58:58;25.42;;;2.70;;
48629;SDS011;34426;52.180;4.462;2024-02-23T03:01:23;21.92;;;1.98;;
48629;SDS011;34426;52.180;4.462;2024-02-23T03:03:50;16.45;;;2.28;;
48629;SDS011;34426;52.180;4.462;2024-02-23T03:06:15;17.55;;;2.30;;
48629;SDS011;34426;52.180;4.462;2024-02-23T03:08:41;16.98;;;2.67;;
48629;SDS011;34426;52.180;4.462;2024-02-23T03:11:07;21.52;;;3.00;;
48629;SDS011;34426;52.180;4.462;2024-02-23T03:13:32;21.30;;;2.38;;
48629;SDS011;34426;52.180;4.462;2024-02-23T03:15:58;20.38;;;3.75;;
48629;SDS011;34426;52.180;4.462;2024-02-23T03:21:27;20.20;;;2.75;;
48629;SDS011;34426;52.180;4.462;2024-02-23T03:23:53;15.32;;;2.67;;
48629;SDS011;34426;52.180;4.462;2024-02-23T03:26:18;15.23;;;2.03;;
48629;SDS011;34426;52.180;4.462;2024-02-23T03:28:44;16.38;;;2.47;;
48629;SDS011;34426;52.180;4.462;2024-02-23T03:31:09;18.02;;;2.42;;
48629;SDS011;34426;52.180;4.462;2024-02-23T03:33:35;14.98;;;3.35;;
48629;SDS011;34426;52.180;4.462;2024-02-23T03:36:00;23.83;;;2.88;;
48629;SDS011;34426;52.180;4.462;2024-02-23T03:38:27;18.33;;;2.67;;
48629;SDS011;34426;52.180;4.462;2024-02-23T03:40:52;26.15;;;3.80;;
48629;SDS011;34426;52.180;4.462;2024-02-23T03:43:18;22.00;;;2.75;;
48629;SDS011;34426;52.180;4.462;2024-02-23T03:45:43;17.50;;;2.13;;
48629;SDS011;34426;52.180;4.462;2024-02-23T03:48:08;24.02;;;3.35;;
48629;SDS011;34426;52.180;4.462;2024-02-23T03:50:34;19.75;;;3.05;;
48629;SDS011;34426;52.180;4.462;2024-02-23T03:52:59;17.58;;;2.47;;
48629;SDS011;34426;52.180;4.462;2024-02-23T03:55:26;19.83;;;2.85;;
48629;SDS011;34426;52.180;4.462;2024-02-23T03:57:52;24.85;;;3.42;;
48629;SDS011;34426;52.180;4.462;2024-02-23T04:00:17;21.98;;;2.38;;
48629;SDS011;34426;52.180;4.462;2024-02-23T04:02:43;27.30;;;3.17;;
48629;SDS011;34426;52.180;4.462;2024-02-23T04:05:08;14.57;;;2.58;;
48629;SDS011;34426;52.180;4.462;2024-02-23T04:07:34;12.63;;;2.13;;
48629;SDS011;34426;52.180;4.462;2024-02-23T04:10:00;15.18;;;2.15;;
48629;SDS011;34426;52.180;4.462;2024-02-23T04:12:26;24.25;;;3.13;;
48629;SDS011;34426;52.180;4.462;2024-02-23T04:14:52;19.25;;;2.25;;
48629;SDS011;34426;52.180;4.462;2024-02-23T04:17:17;14.88;;;2.47;;
48629;SDS011;34426;52.180;4.462;2024-02-23T04:19:43;24.08;;;3.50;;
48629;SDS011;34426;52.180;4.462;2024-02-23T04:22:08;18.27;;;2.47;;
48629;SDS011;34426;52.180;4.462;2024-02-23T04:24:34;13.95;;;2.13;;
48629;SDS011;34426;52.180;4.462;2024-02-23T04:27:00;16.10;;;2.15;;
48629;SDS011;34426;52.180;4.462;2024-02-23T04:29:27;19.65;;;3.10;;
48629;SDS011;34426;52.180;4.462;2024-02-23T04:31:53;18.05;;;2.40;;
48629;SDS011;34426;52.180;4.462;2024-02-23T04:34:18;21.13;;;3.05;;
48629;SDS011;34426;52.180;4.462;2024-02-23T04:36:44;22.85;;;3.15;;
48629;SDS011;34426;52.180;4.462;2024-02-23T04:39:09;16.80;;;2.92;;
48629;SDS011;34426;52.180;4.462;2024-02-23T04:41:34;20.67;;;2.80;;
48629;SDS011;34426;52.180;4.462;2024-02-23T04:44:00;23.88;;;2.90;;
48629;SDS011;34426;52.180;4.462;2024-02-23T04:46:27;22.23;;;4.40;;
48629;SDS011;34426;52.180;4.462;2024-02-23T04:48:52;15.65;;;2.55;;
48629;SDS011;34426;52.180;4.462;2024-02-23T04:51:18;16.30;;;2.58;;
48629;SDS011;34426;52.180;4.462;2024-02-23T04:53:43;14.52;;;1.98;;
48629;SDS011;34426;52.180;4.462;2024-02-23T04:56:08;14.90;;;1.95;;
48629;SDS011;34426;52.180;4.462;2024-02-23T04:58:34;6.78;;;1.52;;
48629;SDS011;34426;52.180;4.462;2024-02-23T05:00:59;13.02;;;1.48;;
48629;SDS011;34426;52.180;4.462;2024-02-23T05:03:26;13.18;;;1.90;;
48629;SDS011;34426;52.180;4.462;2024-02-23T05:05:52;10.98;;;1.35;;
48629;SDS011;34426;52.180;4.462;2024-02-23T05:08:17;9.02;;;1.25;;
48629;SDS011;34426;52.180;4.462;2024-02-23T05:10:43;7.93;;;0.93;;
48629;SDS011;34426;52.180;4.462;2024-02-23T05:13:08;6.35;;;1.23;;
48629;SDS011;34426;52.180;4.462;2024-02-23T05:15:33;5.68;;;1.02;;
48629;SDS011;34426;52.180;4.462;2024-02-23T05:17:59;8.13;;;1.20;;
48629;SDS011;34426;52.180;4.462;2024-02-23T05:20:26;11.65;;;1.63;;
48629;SDS011;34426;52.180;4.462;2024-02-23T05:22:51;6.38;;;0.90;;
48629;SDS011;34426;52.180;4.462;2024-02-23T05:25:17;8.48;;;1.15;;
48629;SDS011;34426;52.180;4.462;2024-02-23T05:27:42;10.50;;;1.20;;
48629;SDS011;34426;52.180;4.462;2024-02-23T05:30:08;7.22;;;1.15;;
48629;SDS011;34426;52.180;4.462;2024-02-23T05:32:34;13.23;;;1.10;;
48629;SDS011;34426;52.180;4.462;2024-02-23T05:34:59;6.93;;;1.25;;
48629;SDS011;34426;52.180;4.462;2024-02-23T05:37:26;6.75;;;1.15;;
48629;SDS011;34426;52.180;4.462;2024-02-23T05:39:51;13.20;;;2.08;;
48629;SDS011;34426;52.180;4.462;2024-02-23T05:42:17;9.57;;;1.42;;
48629;SDS011;34426;52.180;4.462;2024-02-23T05:44:43;17.73;;;3.60;;
48629;SDS011;34426;52.180;4.462;2024-02-23T05:47:08;10.88;;;2.00;;
48629;SDS011;34426;52.180;4.462;2024-02-23T05:49:34;6.57;;;2.05;;
48629;SDS011;34426;52.180;4.462;2024-02-23T05:51:59;15.05;;;1.95;;
48629;SDS011;34426;52.180;4.462;2024-02-23T05:54:26;14.93;;;1.70;;
48629;SDS011;34426;52.180;4.462;2024-02-23T05:56:51;10.10;;;1.67;;
48629;SDS011;34426;52.180;4.462;2024-02-23T05:59:17;9.07;;;1.77;;
48629;SDS011;34426;52.180;4.462;2024-02-23T06:01:42;11.25;;;2.08;;
48629;SDS011;34426;52.180;4.462;2024-02-23T06:04:08;14.13;;;2.20;;
48629;SDS011;34426;52.180;4.462;2024-02-23T06:06:33;13.60;;;1.88;;
48629;SDS011;34426;52.180;4.462;2024-02-23T06:08:58;10.38;;;1.75;;
48629;SDS011;34426;52.180;4.462;2024-02-23T06:11:25;16.42;;;2.30;;
48629;SDS011;34426;52.180;4.462;2024-02-23T06:13:51;11.60;;;2.10;;
48629;SDS011;34426;52.180;4.462;2024-02-23T06:16:16;13.63;;;2.35;;
48629;SDS011;34426;52.180;4.462;2024-02-23T06:18:42;10.88;;;2.10;;
48629;SDS011;34426;52.180;4.462;2024-02-23T06:21:11;8.98;;;1.90;;
48629;SDS011;34426;52.180;4.462;2024-02-23T06:23:37;8.35;;;1.83;;
48629;SDS011;34426;52.180;4.462;2024-02-23T06:26:02;12.25;;;1.90;;
48629;SDS011;34426;52.180;4.462;2024-02-23T06:28:29;12.57;;;1.92;;
48629;SDS011;34426;52.180;4.462;2024-02-23T06:30:55;12.38;;;2.08;;
48629;SDS011;34426;52.180;4.462;2024-02-23T06:33:20;16.00;;;2.97;;
48629;SDS011;34426;52.180;4.462;2024-02-23T06:35:46;15.90;;;2.40;;
48629;SDS011;34426;52.180;4.462;2024-02-23T06:38:11;19.48;;;2.80;;
48629;SDS011;34426;52.180;4.462;2024-02-23T06:40:36;9.73;;;2.67;;
48629;SDS011;34426;52.180;4.462;2024-02-23T06:43:02;10.95;;;2.83;;
48629;SDS011;34426;52.180;4.462;2024-02-23T06:45:29;12.82;;;2.80;;
48629;SDS011;34426;52.180;4.462;2024-02-23T06:47:55;10.93;;;2.92;;
48629;SDS011;34426;52.180;4.462;2024-02-23T06:50:21;16.27;;;3.10;;
48629;SDS011;34426;52.180;4.462;2024-02-23T06:52:46;8.77;;;2.53;;
48629;SDS011;34426;52.180;4.462;2024-02-23T06:55:12;13.60;;;2.55;;
48629;SDS011;34426;52.180;4.462;2024-02-23T06:57:38;11.52;;;2.58;;
48629;SDS011;34426;52.180;4.462;2024-02-23T07:00:03;13.00;;;2.63;;
48629;SDS011;34426;52.180;4.462;2024-02-23T07:02:32;11.65;;;2.47;;
48629;SDS011;34426;52.180;4.462;2024-02-23T07:04:58;11.65;;;2.33;;
48629;SDS011;34426;52.180;4.462;2024-02-23T07:07:23;13.57;;;2.55;;
48629;SDS011;34426;52.180;4.462;2024-02-23T07:09:49;11.05;;;2.45;;
48629;SDS011;34426;52.180;4.462;2024-02-23T07:12:14;19.73;;;3.97;;
48629;SDS011;34426;52.180;4.462;2024-02-23T07:14:39;12.38;;;2.03;;
48629;SDS011;34426;52.180;4.462;2024-02-23T07:17:05;14.40;;;2.42;;
48629;SDS011;34426;52.180;4.462;2024-02-23T07:19:32;12.23;;;2.53;;
48629;SDS011;34426;52.180;4.462;2024-02-23T07:21:57;13.43;;;3.88;;
48629;SDS011;34426;52.180;4.462;2024-02-23T07:24:23;12.77;;;2.70;;
48629;SDS011;34426;52.180;4.462;2024-02-23T07:26:48;10.35;;;2.58;;
48629;SDS011;34426;52.180;4.462;2024-02-23T07:29:13;15.98;;;2.95;;
48629;SDS011;34426;52.180;4.462;2024-02-23T07:31:39;10.52;;;2.58;;
48629;SDS011;34426;52.180;4.462;2024-02-23T07:34:04;18.17;;;3.20;;
48629;SDS011;34426;52.180;4.462;2024-02-23T07:36:31;14.77;;;3.38;;
48629;SDS011;34426;52.180;4.462;2024-02-23T07:38:56;19.73;;;3.70;;
48629;SDS011;34426;52.180;4.462;2024-02-23T07:41:22;12.40;;;3.30;;
48629;SDS011;34426;52.180;4.462;2024-02-23T07:43:47;10.30;;;2.67;;
48629;SDS011;34426;52.180;4.462;2024-02-23T07:46:13;13.23;;;3.60;;
48629;SDS011;34426;52.180;4.462;2024-02-23T07:48:38;10.23;;;3.40;;
48629;SDS011;34426;52.180;4.462;2024-02-23T07:51:04;12.45;;;3.33;;
48629;SDS011;34426;52.180;4.462;2024-02-23T07:53:32;10.10;;;2.97;;
48629;SDS011;34426;52.180;4.462;2024-02-23T07:55:58;12.15;;;3.33;;
48629;SDS011;34426;52.180;4.462;2024-02-23T07:58:24;8.75;;;2.70;;
48629;SDS011;34426;52.180;4.462;2024-02-23T08:00:49;11.35;;;2.63;;
48629;SDS011;34426;52.180;4.462;2024-02-23T08:03:15;7.95;;;2.97;;
48629;SDS011;34426;52.180;4.462;2024-02-23T08:05:40;9.38;;;3.28;;
48629;SDS011;34426;52.180;4.462;2024-02-23T08:08:06;14.98;;;3.60;;
48629;SDS011;34426;52.180;4.462;2024-02-23T08:10:33;11.30;;;3.50;;
48629;SDS011;34426;52.180;4.462;2024-02-23T08:12:58;9.73;;;3.13;;
48629;SDS011;34426;52.180;4.462;2024-02-23T08:15:24;6.32;;;3.13;;
48629;SDS011;34426;52.180;4.462;2024-02-23T08:17:49;13.10;;;3.65;;
48629;SDS011;34426;52.180;4.462;2024-02-23T08:20:15;17.63;;;4.20;;
48629;SDS011;34426;52.180;4.462;2024-02-23T08:22:40;19.42;;;4.38;;
48629;SDS011;34426;52.180;4.462;2024-02-23T08:25:06;13.32;;;3.85;;
48629;SDS011;34426;52.180;4.462;2024-02-23T08:27:33;15.82;;;4.90;;
48629;SDS011;34426;52.180;4.462;2024-02-23T08:29:59;17.70;;;4.22;;
48629;SDS011;34426;52.180;4.462;2024-02-23T08:32:24;22.42;;;4.45;;
48629;SDS011;34426;52.180;4.462;2024-02-23T08:34:50;19.40;;;4.20;;
48629;SDS011;34426;52.180;4.462;2024-02-23T08:37:15;13.35;;;4.05;;
48629;SDS011;34426;52.180;4.462;2024-02-23T08:39:41;15.10;;;3.85;;
48629;SDS011;34426;52.180;4.462;2024-02-23T08:42:06;22.38;;;3.97;;
48629;SDS011;34426;52.180;4.462;2024-02-23T08:44:33;15.02;;;3.55;;
48629;SDS011;34426;52.180;4.462;2024-02-23T08:46:58;19.48;;;3.40;;
48629;SDS011;34426;52.180;4.462;2024-02-23T08:49:24;15.52;;;2.85;;
48629;SDS011;34426;52.180;4.462;2024-02-23T08:51:50;8.93;;;3.05;;
48629;SDS011;34426;52.180;4.462;2024-02-23T08:54:15;14.27;;;2.65;;
48629;SDS011;34426;52.180;4.462;2024-02-23T08:56:40;13.07;;;3.58;;
48629;SDS011;34426;52.180;4.462;2024-02-23T08:59:06;13.52;;;3.00;;
48629;SDS011;34426;52.180;4.462;2024-02-23T09:01:33;13.98;;;3.00;;
48629;SDS011;34426;52.180;4.462;2024-02-23T09:03:58;11.13;;;3.70;;
48629;SDS011;34426;52.180;4.462;2024-02-23T09:06:23;8.77;;;3.00;;
48629;SDS011;34426;52.180;4.462;2024-02-23T09:08:49;14.57;;;3.13;;
48629;SDS011;34426;52.180;4.462;2024-02-23T09:11:14;17.55;;;3.70;;
48629;SDS011;34426;52.180;4.462;2024-02-23T09:13:40;16.90;;;3.30;;
48629;SDS011;34426;52.180;4.462;2024-02-23T09:16:05;7.57;;;2.67;;
48629;SDS011;34426;52.180;4.462;2024-02-23T09:18:33;9.32;;;2.50;;
48629;SDS011;34426;52.180;4.462;2024-02-23T09:20:59;15.57;;;2.72;;
48629;SDS011;34426;52.180;4.462;2024-02-23T09:23:24;10.40;;;2.83;;
48629;SDS011;34426;52.180;4.462;2024-02-23T09:25:50;13.07;;;3.00;;
48629;SDS011;34426;52.180;4.462;2024-02-23T09:28:15;16.60;;;2.60;;
48629;SDS011;34426;52.180;4.462;2024-02-23T09:30:41;13.82;;;3.15;;
48629;SDS011;34426;52.180;4.462;2024-02-23T09:33:06;11.48;;;2.92;;
48629;SDS011;34426;52.180;4.462;2024-02-23T09:35:33;8.27;;;2.20;;
48629;SDS011;34426;52.180;4.462;2024-02-23T09:37:58;12.77;;;2.58;;
48629;SDS011;34426;52.180;4.462;2024-02-23T09:40:24;14.40;;;2.60;;
48629;SDS011;34426;52.180;4.462;2024-02-23T09:42:51;14.63;;;2.58;;
48629;SDS011;34426;52.180;4.462;2024-02-23T09:45:20;13.98;;;2.60;;
48629;SDS011;34426;52.180;4.462;2024-02-23T09:47:46;11.63;;;2.85;;
48629;SDS011;34426;52.180;4.462;2024-02-23T09:50:12;13.80;;;2.35;;
48629;SDS011;34426;52.180;4.462;2024-02-23T09:52:40;9.90;;;2.38;;
48629;SDS011;34426;52.180;4.462;2024-02-23T09:55:06;15.55;;;2.38;;
48629;SDS011;34426;52.180;4.462;2024-02-23T09:57:31;8.30;;;2.33;;
48629;SDS011;34426;52.180;4.462;2024-02-23T09:59:57;17.85;;;2.83;;
48629;SDS011;34426;52.180;4.462;2024-02-23T10:02:23;7.65;;;1.70;;
48629;SDS011;34426;52.180;4.462;2024-02-23T10:04:48;11.20;;;2.33;;
48629;SDS011;34426;52.180;4.462;2024-02-23T10:07:16;12.07;;;2.20;;
48629;SDS011;34426;52.180;4.462;2024-02-23T10:09:43;10.27;;;2.42;;
48629;SDS011;34426;52.180;4.462;2024-02-23T10:12:08;10.40;;;1.60;;
48629;SDS011;34426;52.180;4.462;2024-02-23T10:14:34;6.97;;;1.77;;
48629;SDS011;34426;52.180;4.462;2024-02-23T10:16:59;10.68;;;1.88;;
48629;SDS011;34426;52.180;4.462;2024-02-23T10:19:25;11.15;;;3.75;;
48629;SDS011;34426;52.180;4.462;2024-02-23T10:21:50;9.52;;;2.50;;
48629;SDS011;34426;52.180;4.462;2024-02-23T10:24:17;11.68;;;2.03;;
48629;SDS011;34426;52.180;4.462;2024-02-23T10:26:44;9.65;;;2.30;;
48629;SDS011;34426;52.180;4.462;2024-02-23T10:29:09;11.00;;;1.30;;
48629;SDS011;34426;52.180;4.462;2024-02-23T10:31:35;10.57;;;2.05;;
48629;SDS011;34426;52.180;4.462;2024-02-23T10:34:01;9.38;;;1.88;;
48629;SDS011;34426;52.180;4.462;2024-02-23T10:36:32;14.93;;;1.90;;
48629;SDS011;34426;52.180;4.462;2024-02-23T10:38:59;12.43;;;1.48;;
48629;SDS011;34426;52.180;4.462;2024-02-23T10:41:27;17.63;;;2.03;;
48629;SDS011;34426;52.180;4.462;2024-02-23T10:44:00;15.02;;;2.47;;
48629;SDS011;34426;52.180;4.462;2024-02-23T10:46:26;13.13;;;2.05;;
48629;SDS011;34426;52.180;4.462;2024-02-23T10:48:53;11.65;;;2.03;;
48629;SDS011;34426;52.180;4.462;2024-02-23T10:51:20;7.78;;;1.60;;
48629;SDS011;34426;52.180;4.462;2024-02-23T10:53:46;13.00;;;1.90;;
48629;SDS011;34426;52.180;4.462;2024-02-23T10:56:13;10.27;;;1.77;;
48629;SDS011;34426;52.180;4.462;2024-02-23T10:58:39;12.13;;;1.58;;
48629;SDS011;34426;52.180;4.462;2024-02-23T11:01:06;7.55;;;2.03;;
48629;SDS011;34426;52.180;4.462;2024-02-23T11:03:34;13.07;;;2.33;;
48629;SDS011;34426;52.180;4.462;2024-02-23T11:06:02;11.27;;;2.42;;
48629;SDS011;34426;52.180;4.462;2024-02-23T11:08:32;8.40;;;1.80;;
48629;SDS011;34426;52.180;4.462;2024-02-23T11:10:57;9.27;;;1.55;;
48629;SDS011;34426;52.180;4.462;2024-02-23T11:13:34;7.10;;;1.80;;
48629;SDS011;34426;52.180;4.462;2024-02-23T11:16:03;7.45;;;2.05;;
48629;SDS011;34426;52.180;4.462;2024-02-23T11:18:30;7.90;;;1.48;;
48629;SDS011;34426;52.180;4.462;2024-02-23T11:20:56;11.63;;;2.10;;
48629;SDS011;34426;52.180;4.462;2024-02-23T11:23:25;9.07;;;1.55;;
48629;SDS011;34426;52.180;4.462;2024-02-23T11:26:04;10.82;;;2.13;;
48629;SDS011;34426;52.180;4.462;2024-02-23T11:28:30;5.43;;;1.52;;
48629;SDS011;34426;52.180;4.462;2024-02-23T11:30:56;12.82;;;2.28;;
48629;SDS011;34426;52.180;4.462;2024-02-23T11:33:28;10.15;;;1.90;;
48629;SDS011;34426;52.180;4.462;2024-02-23T11:35:55;7.07;;;1.58;;
48629;SDS011;34426;52.180;4.462;2024-02-23T11:38:29;8.68;;;1.70;;
48629;SDS011;34426;52.180;4.462;2024-02-23T11:40:57;5.32;;;1.55;;
48629;SDS011;34426;52.180;4.462;2024-02-23T11:43:22;6.45;;;2.08;;
48629;SDS011;34426;52.180;4.462;2024-02-23T11:45:48;7.63;;;1.60;;
48629;SDS011;34426;52.180;4.462;2024-02-23T11:48:13;7.93;;;1.77;;
48629;SDS011;34426;52.180;4.462;2024-02-23T11:50:39;9.52;;;2.53;;
48629;SDS011;34426;52.180;4.462;2024-02-23T11:53:06;11.77;;;2.25;;
48629;SDS011;34426;52.180;4.462;2024-02-23T11:55:31;6.95;;;1.63;;
48629;SDS011;34426;52.180;4.462;2024-02-23T11:57:57;10.23;;;1.98;;
48629;SDS011;34426;52.180;4.462;2024-02-23T12:00:23;5.30;;;1.33;;
48629;SDS011;34426;52.180;4.462;2024-02-23T12:02:48;8.85;;;1.85;;
48629;SDS011;34426;52.180;4.462;2024-02-23T12:05:14;7.80;;;1.52;;
48629;SDS011;34426;52.180;4.462;2024-02-23T12:07:40;13.02;;;2.30;;
48629;SDS011;34426;52.180;4.462;2024-02-23T12:10:07;8.88;;;1.73;;
48629;SDS011;34426;52.180;4.462;2024-02-23T12:12:33;9.23;;;1.58;;
48629;SDS011;34426;52.180;4.462;2024-02-23T12:14:58;8.02;;;2.20;;
48629;SDS011;34426;52.180;4.462;2024-02-23T12:17:25;6.88;;;1.45;;
48629;SDS011;34426;52.180;4.462;2024-02-23T12:19:50;10.00;;;1.70;;
48629;SDS011;34426;52.180;4.462;2024-02-23T12:22:24;8.80;;;1.73;;
48629;SDS011;34426;52.180;4.462;2024-02-23T12:24:49;7.93;;;2.00;;
48629;SDS011;34426;52.180;4.462;2024-02-23T12:27:17;13.63;;;1.95;;
48629;SDS011;34426;52.180;4.462;2024-02-23T12:29:50;16.05;;;1.80;;
48629;SDS011;34426;52.180;4.462;2024-02-23T12:32:19;10.23;;;2.15;;
48629;SDS011;34426;52.180;4.462;2024-02-23T12:34:45;13.38;;;1.80;;
48629;SDS011;34426;52.180;4.462;2024-02-23T12:37:11;10.27;;;2.05;;
48629;SDS011;34426;52.180;4.462;2024-02-23T12:39:39;7.32;;;1.77;;
48629;SDS011;34426;52.180;4.462;2024-02-23T12:42:05;13.10;;;2.08;;
48629;SDS011;34426;52.180;4.462;2024-02-23T12:44:34;10.52;;;1.75;;
48629;SDS011;34426;52.180;4.462;2024-02-23T12:47:00;13.02;;;1.75;;
48629;SDS011;34426;52.180;4.462;2024-02-23T12:49:25;16.10;;;2.33;;
48629;SDS011;34426;52.180;4.462;2024-02-23T12:51:51;17.58;;;2.38;;
48629;SDS011;34426;52.180;4.462;2024-02-23T12:54:16;12.40;;;2.33;;
48629;SDS011;34426;52.180;4.462;2024-02-23T12:56:42;10.15;;;2.25;;
48629;SDS011;34426;52.180;4.462;2024-02-23T12:59:07;7.50;;;1.27;;
48629;SDS011;34426;52.180;4.462;2024-02-23T13:01:34;7.88;;;1.63;;
48629;SDS011;34426;52.180;4.462;2024-02-23T13:04:00;10.18;;;1.75;;
48629;SDS011;34426;52.180;4.462;2024-02-23T13:06:25;9.32;;;1.60;;
48629;SDS011;34426;52.180;4.462;2024-02-23T13:08:51;11.07;;;1.90;;
48629;SDS011;34426;52.180;4.462;2024-02-23T13:11:16;8.00;;;1.92;;
48629;SDS011;34426;52.180;4.462;2024-02-23T13:13:42;10.48;;;1.60;;
48629;SDS011;34426;52.180;4.462;2024-02-23T13:16:07;16.23;;;1.92;;
48629;SDS011;34426;52.180;4.462;2024-02-23T13:18:34;11.50;;;1.73;;
48629;SDS011;34426;52.180;4.462;2024-02-23T13:21:00;5.97;;;1.67;;
48629;SDS011;34426;52.180;4.462;2024-02-23T13:23:26;7.60;;;1.20;;
48629;SDS011;34426;52.180;4.462;2024-02-23T13:25:51;14.10;;;1.80;;
48629;SDS011;34426;52.180;4.462;2024-02-23T13:28:16;9.80;;;2.25;;
48629;SDS011;34426;52.180;4.462;2024-02-23T13:30:42;7.25;;;1.50;;
48629;SDS011;34426;52.180;4.462;2024-02-23T13:33:07;4.78;;;1.38;;
48629;SDS011;34426;52.180;4.462;2024-02-23T13:35:34;7.30;;;1.70;;
48629;SDS011;34426;52.180;4.462;2024-02-23T13:38:00;10.90;;;2.00;;
48629;SDS011;34426;52.180;4.462;2024-02-23T13:40:25;6.38;;;1.52;;
48629;SDS011;34426;52.180;4.462;2024-02-23T13:42:51;7.53;;;1.30;;
48629;SDS011;34426;52.180;4.462;2024-02-23T13:45:16;8.57;;;1.17;;
48629;SDS011;34426;52.180;4.462;2024-02-23T13:47:42;9.25;;;1.38;;
48629;SDS011;34426;52.180;4.462;2024-02-23T13:50:08;7.15;;;1.20;;
48629;SDS011;34426;52.180;4.462;2024-02-23T13:52:35;5.68;;;1.35;;
48629;SDS011;34426;52.180;4.462;2024-02-23T13:55:01;6.25;;;1.35;;
48629;SDS011;34426;52.180;4.462;2024-02-23T13:57:27;9.75;;;1.20;;
48629;SDS011;34426;52.180;4.462;2024-02-23T13:59:52;3.80;;;1.00;;
48629;SDS011;34426;52.180;4.462;2024-02-23T14:02:24;6.07;;;1.50;;
48629;SDS011;34426;52.180;4.462;2024-02-23T14:04:50;5.25;;;1.50;;
48629;SDS011;34426;52.180;4.462;2024-02-23T14:07:16;5.45;;;1.30;;
48629;SDS011;34426;52.180;4.462;2024-02-23T14:09:43;2.85;;;0.77;;
48629;SDS011;34426;52.180;4.462;2024-02-23T14:12:08;6.57;;;1.38;;
48629;SDS011;34426;52.180;4.462;2024-02-23T14:14:33;8.68;;;1.30;;
48629;SDS011;34426;52.180;4.462;2024-02-23T14:16:59;7.05;;;1.08;;
48629;SDS011;34426;52.180;4.462;2024-02-23T14:19:24;4.20;;;1.30;;
48629;SDS011;34426;52.180;4.462;2024-02-23T14:21:50;5.07;;;0.80;;
48629;SDS011;34426;52.180;4.462;2024-02-23T14:24:15;7.25;;;1.33;;
48629;SDS011;34426;52.180;4.462;2024-02-23T14:26:42;9.40;;;1.77;;
48629;SDS011;34426;52.180;4.462;2024-02-23T14:29:07;4.70;;;1.13;;
48629;SDS011;34426;52.180;4.462;2024-02-23T14:31:33;4.20;;;0.98;;
48629;SDS011;34426;52.180;4.462;2024-02-23T14:33:58;4.60;;;0.90;;